createdAt,value
2023-05-10T00:01:58.500Z,98243.19
2023-05-10T00:04:29.686Z,98246.16
2023-05-10T00:06:59.015Z,98242.94
2023-05-10T00:09:28.122Z,98246.72
2023-05-10T00:12:00.514Z,98248.59
2023-05-10T00:14:29.812Z,98245.63
2023-05-10T00:16:59.059Z,98250.50
2023-05-10T00:19:28.814Z,98247.28
2023-05-10T00:21:57.927Z,98254.81
2023-05-10T00:24:27.301Z,98247.84
2023-05-10T00:26:56.872Z,98257.00
2023-05-10T00:29:27.962Z,98257.84
2023-05-10T00:31:58.435Z,98257.28
2023-05-10T00:34:27.937Z,98265.69
2023-05-10T00:36:57.162Z,98264.06
2023-05-10T00:39:26.477Z,98259.75
2023-05-10T00:41:55.792Z,98267.03
2023-05-10T00:44:25.080Z,98265.94
2023-05-10T00:46:55.617Z,98266.22
2023-05-10T00:49:25.273Z,98274.03
2023-05-10T00:51:54.506Z,98273.78
2023-05-10T00:54:23.718Z,98262.69
2023-05-10T00:56:54.130Z,98264.84
2023-05-10T00:59:24.103Z,98273.47
2023-05-10T01:01:53.700Z,98275.88
2023-05-10T01:04:27.586Z,98278.03
2023-05-10T01:06:57.092Z,98272.88
2023-05-10T01:09:58.852Z,98273.66
2023-05-10T01:12:28.701Z,98273.63
2023-05-10T01:14:58.198Z,98280.91
2023-05-10T01:17:28.410Z,98281.09
2023-05-10T01:19:58.280Z,98284.50
2023-05-10T01:22:54.679Z,98292.78
2023-05-10T01:25:48.960Z,98297.34
2023-05-10T01:28:50.354Z,98297.56
2023-05-10T01:31:55.931Z,98300.69
2023-05-10T01:34:35.493Z,98295.50
2023-05-10T01:37:13.447Z,98294.34
2023-05-10T01:39:52.209Z,98296.66
2023-05-10T01:42:29.668Z,98296.50
2023-05-10T01:45:19.273Z,98305.41
2023-05-10T01:48:04.763Z,98302.25
2023-05-10T01:50:38.276Z,98302.88
2023-05-10T01:53:10.911Z,98292.28
2023-05-10T01:55:51.076Z,98296.91
2023-05-10T01:58:25.241Z,98296.94
2023-05-10T02:00:56.255Z,98293.16
2023-05-10T02:03:28.393Z,98299.53
2023-05-10T02:05:59.903Z,98300.53
2023-05-10T02:08:29.557Z,98300.31
2023-05-10T02:11:01.063Z,98300.00
2023-05-10T02:13:32.423Z,98295.31
2023-05-10T02:16:03.467Z,98300.81
2023-05-10T02:18:35.692Z,98297.25
2023-05-10T02:21:06.108Z,98310.00
2023-05-10T02:23:37.104Z,98315.56
2023-05-10T02:26:08.850Z,98324.78
2023-05-10T02:28:39.652Z,98314.97
2023-05-10T02:31:12.037Z,98326.59
2023-05-10T02:33:43.314Z,98319.41
2023-05-10T02:36:13.353Z,98329.66
2023-05-10T02:38:43.368Z,98327.41
2023-05-10T02:41:14.678Z,98326.66
2023-05-10T02:43:45.604Z,98326.44
2023-05-10T02:46:15.326Z,98316.97
2023-05-10T02:48:44.537Z,98323.59
2023-05-10T02:51:16.415Z,98321.84
2023-05-10T02:53:48.747Z,98324.44
2023-05-10T02:56:32.328Z,98322.66
2023-05-10T02:59:02.029Z,98325.22
2023-05-10T03:01:32.034Z,98321.38
2023-05-10T03:04:01.427Z,98324.78
2023-05-10T03:06:31.201Z,98328.19
2023-05-10T03:09:00.377Z,98324.66
2023-05-10T03:12:10.728Z,98326.91
2023-05-10T03:15:04.039Z,98331.09
2023-05-10T03:17:43.247Z,98334.63
2023-05-10T03:20:25.492Z,98326.06
2023-05-10T03:23:03.472Z,98321.13
2023-05-10T03:25:34.202Z,98332.16
2023-05-10T03:28:07.619Z,98325.59
2023-05-10T03:30:38.768Z,98324.31
2023-05-10T03:33:09.435Z,98328.06
2023-05-10T03:35:41.926Z,98332.84
2023-05-10T03:38:11.339Z,98329.34
2023-05-10T03:40:41.377Z,98330.94
2023-05-10T03:43:12.235Z,98340.03
2023-05-10T03:45:42.174Z,98331.53
2023-05-10T03:48:11.460Z,98329.03
2023-05-10T03:50:40.698Z,98337.34
2023-05-10T03:53:09.834Z,98336.56
2023-05-10T03:55:39.415Z,98341.69
2023-05-10T03:58:08.841Z,98347.47
2023-05-10T04:00:37.941Z,98348.25
2023-05-10T04:03:07.439Z,98343.63
2023-05-10T04:05:36.510Z,98348.09
2023-05-10T04:08:06.314Z,98344.72
2023-05-10T04:10:36.502Z,98344.56
2023-05-10T04:13:06.151Z,98344.88
2023-05-10T04:15:35.570Z,98346.78
2023-05-10T04:18:06.571Z,98352.09
2023-05-10T04:20:37.644Z,98351.28
2023-05-10T04:23:06.833Z,98351.13
2023-05-10T04:25:37.585Z,98348.91
2023-05-10T04:28:07.406Z,98359.78
2023-05-10T04:30:36.971Z,98354.63
2023-05-10T04:33:06.313Z,98357.97
2023-05-10T04:35:36.338Z,98358.91
2023-05-10T04:38:05.582Z,98357.63
2023-05-10T04:40:34.820Z,98354.97
2023-05-10T04:43:04.538Z,98355.84
2023-05-10T04:45:33.723Z,98357.78
2023-05-10T04:48:02.987Z,98356.75
2023-05-10T04:50:32.364Z,98349.16
2023-05-10T04:53:01.682Z,98352.25
2023-05-10T04:55:30.939Z,98355.06
2023-05-10T04:58:01.270Z,98361.78
2023-05-10T05:00:30.554Z,98354.03
2023-05-10T05:02:59.728Z,98357.72
2023-05-10T05:05:29.253Z,98353.84
2023-05-10T05:07:58.908Z,98349.34
2023-05-10T05:10:27.983Z,98350.31
2023-05-10T05:12:57.342Z,98345.97
2023-05-10T05:15:26.508Z,98343.66
2023-05-10T05:17:55.931Z,98363.22
2023-05-10T05:20:25.519Z,98354.06
2023-05-10T05:22:54.548Z,98366.91
2023-05-10T05:25:23.842Z,98350.75
2023-05-10T05:27:53.737Z,98346.25
2023-05-10T05:30:23.332Z,98348.47
2023-05-10T05:32:52.731Z,98345.91
2023-05-10T05:35:22.202Z,98356.47
2023-05-10T05:37:51.637Z,98353.06
2023-05-10T05:40:22.625Z,98342.59
2023-05-10T05:42:51.991Z,98350.06
2023-05-10T05:45:21.451Z,98344.06
2023-05-10T05:47:50.880Z,98345.38
2023-05-10T05:50:19.977Z,98329.78
2023-05-10T05:52:49.185Z,98333.53
2023-05-10T05:55:18.738Z,98334.91
2023-05-10T05:57:48.113Z,98339.13
2023-05-10T06:00:18.187Z,98329.66
2023-05-10T06:02:47.848Z,98332.66
2023-05-10T06:05:17.344Z,98326.75
2023-05-10T06:07:46.663Z,98328.81
2023-05-10T06:10:15.886Z,98320.28
2023-05-10T06:12:45.164Z,98331.59
2023-05-10T06:15:14.736Z,98318.31
2023-05-10T06:17:45.452Z,98317.09
2023-05-10T06:20:15.419Z,98326.41
2023-05-10T06:22:44.822Z,98324.78
2023-05-10T06:25:14.572Z,98315.97
2023-05-10T06:27:44.700Z,98319.00
2023-05-10T06:30:17.232Z,98312.72
2023-05-10T06:32:47.609Z,98319.78
2023-05-10T06:35:18.638Z,98299.72
2023-05-10T06:37:48.955Z,98303.84
2023-05-10T06:40:18.759Z,98298.97
2023-05-10T06:42:49.177Z,98303.59
2023-05-10T06:45:20.214Z,98294.97
2023-05-10T06:47:49.969Z,98303.44
2023-05-10T06:50:19.462Z,98291.94
2023-05-10T06:52:48.471Z,98292.91
2023-05-10T06:55:18.247Z,98297.25
2023-05-10T06:57:47.624Z,98297.25
2023-05-10T07:00:18.108Z,98296.03
2023-05-10T07:02:47.935Z,98287.25
2023-05-10T07:05:17.494Z,98293.47
2023-05-10T07:07:47.115Z,98282.94
2023-05-10T07:10:16.236Z,98289.75
2023-05-10T07:12:46.046Z,98290.53
2023-05-10T07:15:15.534Z,98281.50
2023-05-10T07:17:45.982Z,98279.50
2023-05-10T07:20:16.655Z,98269.03
2023-05-10T07:22:45.703Z,98267.75
2023-05-10T07:25:15.231Z,98270.59
2023-05-10T07:27:45.132Z,98257.59
2023-05-10T07:30:15.162Z,98265.25
2023-05-10T07:32:44.676Z,98257.81
2023-05-10T07:35:14.444Z,98262.16
2023-05-10T07:37:43.808Z,98256.69
2023-05-10T07:40:13.212Z,98251.38
2023-05-10T07:42:42.819Z,98243.44
2023-05-10T07:45:12.090Z,98241.06
2023-05-10T07:47:41.518Z,98242.81
2023-05-10T07:50:10.894Z,98244.78
2023-05-10T07:52:40.216Z,98243.00
2023-05-10T07:55:10.084Z,98237.81
2023-05-10T07:57:40.232Z,98238.44
2023-05-10T08:00:10.720Z,98234.59
2023-05-10T08:02:43.794Z,98233.13
2023-05-10T08:05:13.891Z,98213.88
2023-05-10T08:07:43.341Z,98221.88
2023-05-10T08:10:15.580Z,98216.28
2023-05-10T08:12:45.144Z,98225.50
2023-05-10T08:15:14.318Z,98224.53
2023-05-10T08:17:43.814Z,98218.28
2023-05-10T08:20:14.818Z,98213.97
2023-05-10T08:22:44.364Z,98221.50
2023-05-10T08:25:13.449Z,98211.72
2023-05-10T08:27:42.691Z,98224.41
2023-05-10T08:30:12.583Z,98207.16
2023-05-10T08:32:42.222Z,98217.81
2023-05-10T08:35:11.397Z,98213.44
2023-05-10T08:37:45.467Z,98210.47
2023-05-10T08:40:16.010Z,98206.09
2023-05-10T08:42:57.410Z,98195.22
2023-05-10T08:45:30.798Z,98194.09
2023-05-10T08:48:02.314Z,98191.69
2023-05-10T08:50:32.865Z,98184.31
2023-05-10T08:53:06.422Z,98190.97
2023-05-10T08:55:38.745Z,98175.97
2023-05-10T08:58:09.108Z,98175.41
2023-05-10T09:00:39.798Z,98176.09
2023-05-10T09:03:09.296Z,98165.34
2023-05-10T09:05:39.768Z,98162.25
2023-05-10T09:08:10.814Z,98156.66
2023-05-10T09:10:42.414Z,98153.19
2023-05-10T09:13:15.974Z,98147.69
2023-05-10T09:15:47.353Z,98152.78
2023-05-10T09:18:17.100Z,98142.84
2023-05-10T09:20:47.112Z,98150.03
2023-05-10T09:23:16.621Z,98155.38
2023-05-10T09:25:45.689Z,98143.06
2023-05-10T09:28:15.241Z,98142.03
2023-05-10T09:30:45.213Z,98140.34
2023-05-10T09:33:14.500Z,98137.50
2023-05-10T09:35:44.559Z,98140.56
2023-05-10T09:38:14.377Z,98141.13
2023-05-10T09:40:56.295Z,98127.78
2023-05-10T09:43:26.544Z,98115.91
2023-05-10T09:45:55.815Z,98114.25
2023-05-10T09:48:27.366Z,98118.09
2023-05-10T09:51:00.457Z,98112.59
2023-05-10T09:53:30.008Z,98118.06
2023-05-10T09:55:59.805Z,98111.59
2023-05-10T09:58:29.044Z,98090.13
2023-05-10T10:00:59.107Z,98102.41
2023-05-10T10:03:30.280Z,98090.88
2023-05-10T10:06:00.063Z,98096.06
2023-05-10T10:08:30.286Z,98090.72
2023-05-10T10:10:59.999Z,98092.22
2023-05-10T10:13:29.764Z,98082.53
2023-05-10T10:15:59.195Z,98080.81
2023-05-10T10:18:30.898Z,98087.28
2023-05-10T10:21:01.281Z,98070.09
2023-05-10T10:23:31.630Z,98077.75
2023-05-10T10:26:02.382Z,98081.69
2023-05-10T10:28:51.051Z,98077.47
2023-05-10T10:31:21.003Z,98071.31
2023-05-10T10:33:56.555Z,98065.97
2023-05-10T10:36:29.414Z,98060.09
2023-05-10T10:39:03.662Z,98071.00
2023-05-10T10:41:38.395Z,98067.84
2023-05-10T10:44:26.255Z,98063.16
2023-05-10T10:47:14.157Z,98059.03
2023-05-10T10:49:43.853Z,98062.16
2023-05-10T10:52:40.538Z,98051.84
2023-05-10T10:55:19.344Z,98058.22
2023-05-10T10:58:03.026Z,98053.50
2023-05-10T11:00:36.176Z,98060.50
2023-05-10T11:03:09.283Z,98059.78
2023-05-10T11:05:53.375Z,98054.34
2023-05-10T11:08:36.950Z,98060.91
2023-05-10T11:11:09.803Z,98049.91
2023-05-10T11:13:52.463Z,98047.91
2023-05-10T11:16:25.789Z,98049.38
2023-05-10T11:19:04.941Z,98045.81
2023-05-10T11:21:35.505Z,98036.00
2023-05-10T11:24:16.760Z,98046.81
2023-05-10T11:26:46.449Z,98045.44
2023-05-10T11:29:16.221Z,98041.13
2023-05-10T11:31:47.640Z,98045.97
2023-05-10T11:34:35.345Z,98039.25
2023-05-10T11:37:05.142Z,98038.28
2023-05-10T11:39:35.597Z,98045.81
2023-05-10T11:42:04.983Z,98035.13
2023-05-10T11:44:35.536Z,98035.19
2023-05-10T11:47:05.518Z,98033.31
2023-05-10T11:49:34.947Z,98037.59
2023-05-10T11:52:13.447Z,98028.72
2023-05-10T11:54:54.245Z,98030.78
2023-05-10T11:57:30.253Z,98034.94
2023-05-10T11:59:59.826Z,98033.44
2023-05-10T12:02:29.082Z,98027.34
2023-05-10T12:04:59.394Z,98024.41
2023-05-10T12:07:31.014Z,98038.19
2023-05-10T12:10:19.822Z,98028.41
2023-05-10T12:12:50.231Z,98038.59
2023-05-10T12:15:24.318Z,98029.78
2023-05-10T12:17:59.474Z,98035.13
2023-05-10T12:20:30.851Z,98031.78
2023-05-10T12:23:05.194Z,98031.00
2023-05-10T12:25:37.087Z,98032.00
2023-05-10T12:28:08.136Z,98036.97
2023-05-10T12:30:39.459Z,98026.75
2023-05-10T12:33:14.486Z,98035.91
2023-05-10T12:35:49.812Z,98036.09
2023-05-10T12:38:32.957Z,98033.28
2023-05-10T12:41:04.530Z,98038.97
2023-05-10T12:43:34.262Z,98039.75
2023-05-10T12:46:15.127Z,98034.94
2023-05-10T12:48:48.455Z,98032.72
2023-05-10T12:51:21.482Z,98035.13
2023-05-10T12:53:50.805Z,98036.69
2023-05-10T12:56:19.884Z,98029.00
2023-05-10T12:58:50.224Z,98033.16
2023-05-10T13:01:19.524Z,98037.50
2023-05-10T13:03:48.706Z,98039.41
2023-05-10T13:06:18.283Z,98042.94
2023-05-10T13:08:47.431Z,98044.06
2023-05-10T13:11:19.068Z,98031.41
2023-05-10T13:13:48.590Z,98043.00
2023-05-10T13:16:17.684Z,98037.72
2023-05-10T13:18:47.185Z,98041.91
2023-05-10T13:21:16.463Z,98051.06
2023-05-10T13:23:46.223Z,98047.28
2023-05-10T13:26:15.447Z,98043.91
2023-05-10T13:28:44.727Z,98040.53
2023-05-10T13:31:13.981Z,98041.84
2023-05-10T13:33:43.166Z,98044.09
2023-05-10T13:36:12.769Z,98044.59
2023-05-10T13:38:42.413Z,98043.97
2023-05-10T13:41:13.387Z,98049.47
2023-05-10T13:43:43.273Z,98043.06
2023-05-10T13:46:12.810Z,98047.56
2023-05-10T13:48:41.899Z,98050.13
2023-05-10T13:51:11.530Z,98055.41
2023-05-10T13:53:40.596Z,98059.41
2023-05-10T13:56:10.078Z,98064.72
2023-05-10T13:58:39.423Z,98062.13
2023-05-10T14:01:08.675Z,98058.75
2023-05-10T14:03:38.527Z,98056.38
2023-05-10T14:06:09.393Z,98062.78
2023-05-10T14:08:39.161Z,98063.75
2023-05-10T14:11:08.621Z,98058.75
2023-05-10T14:13:37.816Z,98062.44
2023-05-10T14:16:07.663Z,98059.81
2023-05-10T14:18:37.367Z,98058.06
2023-05-10T14:21:06.876Z,98064.94
2023-05-10T14:23:35.880Z,98059.34
2023-05-10T14:26:05.266Z,98064.28
2023-05-10T14:28:35.353Z,98068.47
2023-05-10T14:31:04.650Z,98067.50
2023-05-10T14:33:34.285Z,98063.31
2023-05-10T14:36:05.519Z,98063.94
2023-05-10T14:38:35.012Z,98071.94
2023-05-10T14:41:04.733Z,98065.53
2023-05-10T14:43:33.787Z,98068.06
2023-05-10T14:46:03.206Z,98074.13
2023-05-10T14:48:33.058Z,98069.63
2023-05-10T14:51:02.712Z,98076.50
2023-05-10T14:53:32.050Z,98072.50
2023-05-10T14:56:03.358Z,98069.91
2023-05-10T14:58:34.288Z,98080.31
2023-05-10T15:01:03.894Z,98078.50
2023-05-10T15:03:34.202Z,98078.78
2023-05-10T15:06:03.981Z,98086.78
2023-05-10T15:08:33.033Z,98088.69
2023-05-10T15:11:03.717Z,98080.38
2023-05-10T15:13:32.960Z,98089.16
2023-05-10T15:16:02.177Z,98085.44
2023-05-10T15:18:32.021Z,98090.09
2023-05-10T15:21:01.345Z,98088.78
2023-05-10T15:23:31.998Z,98088.91
2023-05-10T15:26:02.318Z,98095.16
2023-05-10T15:28:33.645Z,98097.84
2023-05-10T15:31:03.903Z,98093.06
2023-05-10T15:33:33.049Z,98097.19
2023-05-10T15:36:02.346Z,98104.06
2023-05-10T15:38:31.554Z,98101.97
2023-05-10T15:41:01.349Z,98112.50
2023-05-10T15:43:30.396Z,98112.31
2023-05-10T15:45:59.715Z,98119.19
2023-05-10T15:48:28.985Z,98113.75
2023-05-10T15:50:59.169Z,98119.78
2023-05-10T15:53:28.598Z,98122.50
2023-05-10T15:55:58.979Z,98120.13
2023-05-10T15:58:28.932Z,98125.84
2023-05-10T16:00:58.940Z,98127.06
2023-05-10T16:03:29.059Z,98134.44
2023-05-10T16:05:58.756Z,98130.41
2023-05-10T16:08:31.722Z,98126.41
2023-05-10T16:11:02.030Z,98132.94
2023-05-10T16:13:32.155Z,98130.00
2023-05-10T16:16:01.578Z,98126.50
2023-05-10T16:18:31.304Z,98131.13
2023-05-10T16:21:03.024Z,98127.13
2023-05-10T16:23:32.350Z,98142.91
2023-05-10T16:26:01.519Z,98135.84
2023-05-10T16:28:31.280Z,98135.38
2023-05-10T16:31:00.732Z,98136.19
2023-05-10T16:33:30.180Z,98132.97
2023-05-10T16:35:59.970Z,98137.91
2023-05-10T16:38:30.030Z,98139.00
2023-05-10T16:41:00.162Z,98140.13
2023-05-10T16:43:30.551Z,98144.72
2023-05-10T16:46:01.075Z,98140.72
2023-05-10T16:48:31.251Z,98139.41
2023-05-10T16:51:01.251Z,98138.13
2023-05-10T16:53:31.175Z,98134.59
2023-05-10T16:56:01.313Z,98137.44
2023-05-10T16:58:32.259Z,98132.81
2023-05-10T17:01:02.836Z,98137.72
2023-05-10T17:03:33.139Z,98132.13
2023-05-10T17:06:04.607Z,98131.31
2023-05-10T17:08:35.039Z,98136.75
2023-05-10T17:11:05.896Z,98133.53
2023-05-10T17:13:36.574Z,98131.94
2023-05-10T17:16:07.780Z,98129.50
2023-05-10T17:18:38.554Z,98133.84
2023-05-10T17:21:08.966Z,98126.81
2023-05-10T17:23:40.599Z,98132.56
2023-05-10T17:26:11.534Z,98122.28
2023-05-10T17:28:43.681Z,98129.13
2023-05-10T17:31:14.291Z,98125.44
2023-05-10T17:33:44.841Z,98122.72
2023-05-10T17:36:15.207Z,98117.09
2023-05-10T17:38:45.943Z,98124.72
2023-05-10T17:41:17.009Z,98114.00
2023-05-10T17:43:48.293Z,98125.16
2023-05-10T17:46:19.411Z,98125.22
2023-05-10T17:48:50.527Z,98115.78
2023-05-10T17:51:22.065Z,98116.91
2023-05-10T17:53:56.012Z,98111.25
2023-05-10T17:56:26.877Z,98109.47
2023-05-10T17:58:57.483Z,98109.97
2023-05-10T18:01:28.173Z,98112.97
2023-05-10T18:03:59.889Z,98105.47
2023-05-10T18:06:31.007Z,98110.59
2023-05-10T18:09:02.157Z,98110.88
2023-05-10T18:11:33.274Z,98110.88
2023-05-10T18:14:03.964Z,98108.47
2023-05-10T18:16:35.930Z,98101.44
2023-05-10T18:19:07.034Z,98110.19
2023-05-10T18:21:39.911Z,98102.66
2023-05-10T18:24:11.242Z,98105.38
2023-05-10T18:26:41.881Z,98109.19
2023-05-10T18:29:12.569Z,98107.88
2023-05-10T18:31:43.244Z,98109.78
2023-05-10T18:34:13.877Z,98105.75
2023-05-10T18:36:45.729Z,98105.56
2023-05-10T18:39:19.808Z,98108.56
2023-05-10T18:41:50.851Z,98101.38
2023-05-10T18:44:21.241Z,98101.84
2023-05-10T18:46:55.132Z,98104.56
2023-05-10T18:49:26.152Z,98097.34
2023-05-10T18:51:56.964Z,98103.03
2023-05-10T18:54:28.133Z,98108.28
2023-05-10T18:57:00.349Z,98101.25
2023-05-10T18:59:33.368Z,98112.41
2023-05-10T19:02:04.391Z,98116.81
2023-05-10T19:04:34.939Z,98101.13
2023-05-10T19:07:05.785Z,98094.72
2023-05-10T19:09:36.053Z,98095.31
2023-05-10T19:12:07.436Z,98095.94
2023-05-10T19:14:37.917Z,98103.50
2023-05-10T19:17:09.952Z,98103.03
2023-05-10T19:19:40.434Z,98108.72
2023-05-10T19:22:11.202Z,98106.03
2023-05-10T19:24:41.389Z,98101.69
2023-05-10T19:27:11.198Z,98100.91
2023-05-10T19:29:40.718Z,98106.09
2023-05-10T19:32:10.577Z,98108.63
2023-05-10T19:34:40.599Z,98106.53
2023-05-10T19:37:10.130Z,98104.91
2023-05-10T19:39:40.186Z,98114.72
2023-05-10T19:42:09.689Z,98113.13
2023-05-10T19:44:39.590Z,98115.31
2023-05-10T19:47:09.986Z,98116.91
2023-05-10T19:49:40.045Z,98113.72
2023-05-10T19:52:11.714Z,98111.31
2023-05-10T19:54:41.183Z,98117.53
2023-05-10T19:57:11.362Z,98110.78
2023-05-10T19:59:41.660Z,98115.09
2023-05-10T20:02:10.788Z,98118.13
2023-05-10T20:04:40.279Z,98107.88
2023-05-10T20:07:09.590Z,98107.88
2023-05-10T20:09:38.905Z,98102.78
2023-05-10T20:12:08.287Z,98106.56
2023-05-10T20:14:37.705Z,98101.72
2023-05-10T20:17:07.348Z,98100.44
2023-05-10T20:19:37.367Z,98099.41
2023-05-10T20:22:06.414Z,98103.53
2023-05-10T20:24:35.817Z,98108.44
2023-05-10T20:27:05.722Z,98110.63
2023-05-10T20:29:35.141Z,98106.59
2023-05-10T20:32:04.924Z,98111.81
2023-05-10T20:34:36.790Z,98113.72
2023-05-10T20:37:06.142Z,98107.28
2023-05-10T20:39:35.233Z,98102.97
2023-05-10T20:42:05.249Z,98099.78
2023-05-10T20:44:34.620Z,98098.97
2023-05-10T20:47:04.083Z,98099.53
2023-05-10T20:49:33.737Z,98100.66
2023-05-10T20:52:03.085Z,98097.69
2023-05-10T20:54:32.264Z,98099.56
2023-05-10T20:57:03.322Z,98099.09
2023-05-10T20:59:32.875Z,98101.28
2023-05-10T21:02:02.407Z,98108.09
2023-05-10T21:04:31.668Z,98111.38
2023-05-10T21:07:01.374Z,98110.88
2023-05-10T21:09:30.842Z,98104.72
2023-05-10T21:12:00.088Z,98105.31
2023-05-10T21:14:30.192Z,98111.59
2023-05-10T21:16:59.441Z,98113.28
2023-05-10T21:19:28.716Z,98112.25
2023-05-10T21:22:00.204Z,98108.22
2023-05-10T21:24:29.430Z,98106.13
2023-05-10T21:26:58.795Z,98107.53
2023-05-10T21:29:28.542Z,98099.97
2023-05-10T21:31:58.151Z,98106.19
2023-05-10T21:34:27.939Z,98100.78
2023-05-10T21:36:57.154Z,98104.88
2023-05-10T21:39:26.544Z,98096.25
2023-05-10T21:41:55.813Z,98098.44
2023-05-10T21:44:24.986Z,98097.63
2023-05-10T21:46:54.309Z,98094.13
2023-05-10T21:49:23.602Z,98099.00
2023-05-10T21:51:53.435Z,98101.22
2023-05-10T21:54:22.686Z,98108.25
2023-05-10T21:56:52.165Z,98101.50
2023-05-10T21:59:22.814Z,98103.19
2023-05-10T22:01:52.316Z,98109.38
2023-05-10T22:04:21.658Z,98104.25
2023-05-10T22:06:50.830Z,98099.97
2023-05-10T22:09:20.858Z,98107.50
2023-05-10T22:11:50.161Z,98110.72
2023-05-10T22:14:19.332Z,98112.31
2023-05-10T22:16:48.795Z,98111.50
2023-05-10T22:19:18.330Z,98114.22
2023-05-10T22:21:47.672Z,98116.41
2023-05-10T22:24:17.166Z,98103.47
2023-05-10T22:26:46.992Z,98114.06
2023-05-10T22:29:16.303Z,98114.88
2023-05-10T22:31:45.527Z,98108.75
2023-05-10T22:34:14.799Z,98112.03
2023-05-10T22:36:45.767Z,98111.53
2023-05-10T22:39:15.173Z,98116.41
2023-05-10T22:41:44.579Z,98105.38
2023-05-10T22:44:13.929Z,98104.56
2023-05-10T22:46:43.290Z,98111.88
2023-05-10T22:49:12.540Z,98115.66
2023-05-10T22:51:41.879Z,98114.34
2023-05-10T22:54:11.150Z,98118.66
2023-05-10T22:56:40.430Z,98115.97
2023-05-10T22:59:10.348Z,98117.03
2023-05-10T23:01:39.576Z,98118.94
2023-05-10T23:04:09.121Z,98118.44
2023-05-10T23:06:38.454Z,98118.44
2023-05-10T23:09:07.896Z,98113.31
2023-05-10T23:11:37.863Z,98113.59
2023-05-10T23:14:07.557Z,98117.09
2023-05-10T23:16:37.652Z,98116.00
2023-05-10T23:19:06.960Z,98118.72
2023-05-10T23:21:36.319Z,98121.69
2023-05-10T23:24:05.865Z,98128.44
2023-05-10T23:26:35.468Z,98122.81
2023-05-10T23:29:04.780Z,98127.91
2023-05-10T23:31:34.411Z,98128.22
2023-05-10T23:34:04.535Z,98127.41
2023-05-10T23:36:34.566Z,98126.59
2023-05-10T23:39:04.260Z,98130.09
2023-05-10T23:41:33.817Z,98134.94
2023-05-10T23:44:06.385Z,98132.50
2023-05-10T23:46:35.741Z,98136.00
2023-05-10T23:49:05.141Z,98135.50
2023-05-10T23:51:34.421Z,98136.81
2023-05-10T23:54:03.795Z,98139.53
2023-05-10T23:56:33.358Z,98141.72
2023-05-10T23:59:02.780Z,98143.91
